Time;durP1;ratioP1;P1;durP2;ratioP2;P2;SDS_P1;SDS_P2;PMS_P1;PMS_P2;Temp;Humidity;BMP_temperature;BMP_pressure;BME280_temperature;BME280_humidity;BME280_pressure;Samples;Min_cycle;Max_cycle;Signal;HPM_P1;HPM_P2
2023/01/25 00:02:22;;;;;;;28.60;20.23;;;;;;;8.42;56.83;100035.72;5013446;28;20032;-49
2023/01/25 00:04:47;;;;;;;29.20;20.77;;;;;;;8.45;56.20;100025.75;5013586;28;20022;-48
2023/01/25 00:07:13;;;;;;;28.10;21.08;;;;;;;8.42;55.90;100020.81;5014718;28;20557;-49
2023/01/25 00:09:38;;;;;;;30.05;20.88;;;;;;;8.28;55.89;100029.19;5013381;28;20502;-49
2023/01/25 00:12:04;;;;;;;30.58;22.48;;;;;;;8.08;56.08;100025.94;5014597;28;20030;-49
2023/01/25 00:14:30;;;;;;;31.95;20.52;;;;;;;7.95;55.71;100026.31;5013247;28;20032;-48
2023/01/25 00:16:55;;;;;;;30.80;20.45;;;;;;;7.93;56.49;100023.84;5014491;28;20506;-48
2023/01/25 00:19:22;;;;;;;26.95;19.67;;;;;;;7.97;56.84;100027.00;5013107;28;20030;-48
2023/01/25 00:21:48;;;;;;;26.40;19.73;;;;;;;8.07;56.59;100019.88;5014417;28;20026;-48
2023/01/25 00:24:13;;;;;;;25.67;20.55;;;;;;;8.06;56.65;100022.66;5014410;28;20073;-48
2023/01/25 00:26:40;;;;;;;33.38;21.65;;;;;;;7.92;57.31;100018.75;5013048;28;20058;-49
2023/01/25 00:29:05;;;;;;;31.65;20.67;;;;;;;7.99;57.57;100009.38;5014305;28;20080;-49
2023/01/25 00:31:41;;;;;;;31.83;20.92;;;;;;;8.07;57.27;100011.19;5014205;28;20018;-48
2023/01/25 00:34:28;;;;;;;28.75;21.02;;;;;;;7.99;57.37;100007.56;5013035;28;20491;-48
2023/01/25 00:36:57;;;;;;;28.92;21.10;;;;;;;7.83;57.40;100003.97;5013948;28;20133;-48
2023/01/25 00:39:25;;;;;;;29.42;20.52;;;;;;;7.90;58.46;100003.22;5012694;28;20025;-49
2023/01/25 00:41:51;;;;;;;35.00;20.60;;;;;;;8.19;58.50;100004.78;5013328;28;20492;-49
2023/01/25 00:44:17;;;;;;;30.25;20.45;;;;;;;8.33;57.70;99999.00;5013993;28;20097;-48
2023/01/25 00:46:42;;;;;;;28.08;21.60;;;;;;;8.24;57.75;100001.69;5013989;28;20033;-48
2023/01/25 00:49:30;;;;;;;32.13;21.58;;;;;;;8.27;58.79;99998.78;5012566;28;20033;-49
2023/01/25 00:51:56;;;;;;;28.85;23.25;;;;;;;8.40;57.23;100001.81;5029848;28;20134;-49
2023/01/25 00:54:22;;;;;;;32.03;21.27;;;;;;;8.29;57.40;99996.81;5015832;28;20463;-49
2023/01/25 00:56:51;;;;;;;32.22;22.70;;;;;;;8.34;56.88;99997.19;5033530;28;20053;-48
2023/01/25 00:59:16;;;;;;;30.23;20.70;;;;;;;8.19;56.63;99997.75;5016052;28;20026;-48
2023/01/25 01:01:42;;;;;;;30.17;20.85;;;;;;;7.98;56.68;100002.47;4999401;28;20021;-49
2023/01/25 01:04:08;;;;;;;26.58;20.50;;;;;;;7.84;57.85;99996.00;5033360;28;20023;-48
2023/01/25 01:06:38;;;;;;;31.02;20.13;;;;;;;7.87;57.57;100000.94;5015492;28;20445;-49
2023/01/25 01:09:05;;;;;;;34.85;21.92;;;;;;;7.70;58.87;99997.34;5033338;28;20064;-49
2023/01/25 01:11:31;;;;;;;33.47;22.17;;;;;;;7.79;58.97;100000.84;5015506;28;20067;-48
2023/01/25 01:13:58;;;;;;;30.23;20.30;;;;;;;7.86;58.24;99993.22;5033440;28;20100;-49
2023/01/25 01:16:24;;;;;;;34.70;21.23;;;;;;;7.82;58.64;99994.50;5033176;28;20460;-48
2023/01/25 01:18:50;;;;;;;28.27;19.33;;;;;;;7.92;57.96;99998.66;5033053;28;20068;-49
2023/01/25 01:21:16;;;;;;;27.13;20.98;;;;;;;7.87;57.14;100000.09;5033121;28;20053;-48
2023/01/25 01:23:42;;;;;;;27.65;20.58;;;;;;;7.65;57.15;100001.38;5033086;28;20097;-49
2023/01/25 01:26:10;;;;;;;31.27;20.80;;;;;;;7.64;58.00;100005.75;5015148;28;20124;-48
2023/01/25 01:28:39;;;;;;;33.03;21.40;;;;;;;7.74;57.85;100003.91;5015150;28;20037;-48
2023/01/25 01:31:08;;;;;;;30.35;20.92;;;;;;;7.64;57.37;99997.13;5033089;28;20391;-49
2023/01/25 01:33:33;;;;;;;27.27;20.98;;;;;;;7.45;57.62;100003.31;5015085;28;20026;-48
2023/01/25 01:36:09;;;;;;;30.52;22.38;;;;;;;7.36;57.93;100005.00;5032774;28;20090;-49
2023/01/25 01:38:35;;;;;;;36.40;21.65;;;;;;;7.32;57.98;100003.63;5032748;28;20032;-49
2023/01/25 01:41:01;;;;;;;27.23;20.90;;;;;;;7.32;58.78;99995.81;5032978;28;20037;-49
2023/01/25 01:43:27;;;;;;;29.30;21.65;;;;;;;7.19;58.80;100010.03;5032717;28;20025;-49
2023/01/25 01:45:55;;;;;;;28.80;21.17;;;;;;;7.24;59.21;100004.38;5014827;28;20029;-49
2023/01/25 01:48:44;;;;;;;27.63;19.52;;;;;;;7.29;58.72;100001.34;5032915;28;20394;-49
2023/01/25 01:52:04;;;;;;;29.83;21.67;;;;;;;7.29;59.32;100007.38;5032297;28;20041;-49
2023/01/25 01:54:36;;;;;;;28.00;19.05;;;;;;;7.36;59.01;100003.22;4932178;29;20103;-49
2023/01/25 01:57:30;;;;;;;43.92;28.35;;;;;;;7.33;58.63;99987.84;4933052;29;20054;-49
2023/01/25 02:00:21;;;;;;;31.55;21.23;;;;;;;7.37;59.54;99993.59;4909411;29;20031;-49
2023/01/25 02:02:49;;;;;;;33.67;23.20;;;;;;;7.64;59.79;99994.50;4931962;29;20036;-48
2023/01/25 02:05:31;;;;;;;26.33;19.88;;;;;;;7.89;59.42;99991.16;4932912;29;20060;-48
2023/01/25 02:07:59;;;;;;;30.38;21.05;;;;;;;8.05;59.28;99989.63;4932935;29;20031;-48
2023/01/25 02:10:27;;;;;;;26.08;19.35;;;;;;;8.11;58.84;99991.63;4932826;29;20047;-48
2023/01/25 02:12:55;;;;;;;27.73;20.75;;;;;;;8.16;58.95;99978.94;4916801;29;20095;-49
2023/01/25 02:15:20;;;;;;;29.17;20.88;;;;;;;8.23;59.33;99979.13;4932794;29;20040;-48
2023/01/25 02:17:47;;;;;;;28.00;19.88;;;;;;;8.26;59.00;99984.88;4932653;29;20040;-48
2023/01/25 02:20:34;;;;;;;28.42;19.95;;;;;;;8.28;59.14;99977.69;4932624;29;20110;-49
2023/01/25 02:23:18;;;;;;;27.80;19.92;;;;;;;8.18;58.59;99971.75;4932673;29;20075;-49
2023/01/25 02:25:45;;;;;;;24.83;19.45;;;;;;;8.02;58.94;99974.25;4916914;29;20036;-48
2023/01/25 02:28:13;;;;;;;26.35;19.65;;;;;;;8.06;59.10;99971.16;4970052;28;20435;-49
2023/01/25 02:30:41;;;;;;;30.33;21.92;;;;;;;7.92;59.06;99975.16;5031894;28;20049;-49
2023/01/25 02:33:06;;;;;;;28.73;20.17;;;;;;;7.87;59.04;99972.19;5031852;28;20022;-48
2023/01/25 02:35:42;;;;;;;27.10;20.42;;;;;;;7.85;59.29;99973.28;4997831;28;20384;-48
2023/01/25 02:38:12;;;;;;;29.50;19.70;;;;;;;7.70;59.33;99978.22;5014041;28;20108;-49
2023/01/25 02:40:45;;;;;;;28.95;20.55;;;;;;;7.70;60.08;99973.00;5031801;28;20483;-48
2023/01/25 02:43:11;;;;;;;28.27;19.67;;;;;;;7.64;59.28;99973.59;5031822;28;20102;-48
2023/01/25 02:45:37;;;;;;;31.15;21.45;;;;;;;7.60;59.86;99979.09;5014236;28;20498;-49
2023/01/25 02:48:03;;;;;;;27.67;19.83;;;;;;;7.46;60.10;99977.00;5031717;28;20049;-48
2023/01/25 02:50:28;;;;;;;28.77;20.48;;;;;;;7.22;59.85;99974.16;5013737;28;20107;-49
2023/01/25 02:52:54;;;;;;;25.67;18.23;;;;;;;7.15;60.73;99974.75;5031968;28;20082;-49
2023/01/25 02:55:19;;;;;;;28.05;19.98;;;;;;;7.24;60.71;99962.59;5014029;28;20043;-48
2023/01/25 02:57:45;;;;;;;30.73;20.92;;;;;;;7.31;61.19;99958.44;5013942;28;20024;-49
2023/01/25 03:00:11;;;;;;;28.88;19.50;;;;;;;7.20;61.22;99956.03;5031514;28;20021;-48
2023/01/25 03:02:37;;;;;;;28.13;19.60;;;;;;;7.12;61.63;99956.78;5031861;28;20395;-49
2023/01/25 03:05:03;;;;;;;26.77;18.80;;;;;;;7.08;60.77;99957.19;5032168;28;20029;-49
2023/01/25 03:07:28;;;;;;;27.23;20.70;;;;;;;7.14;62.14;99951.38;5017804;28;20102;-48
2023/01/25 03:09:54;;;;;;;28.65;21.35;;;;;;;7.36;62.05;99943.16;5035553;28;20541;-49
2023/01/25 03:12:19;;;;;;;31.02;20.27;;;;;;;7.52;61.46;99945.06;5035478;28;20021;-49
2023/01/25 03:14:45;;;;;;;30.23;19.38;;;;;;;7.66;61.63;99950.75;5035441;28;20075;-48
2023/01/25 03:17:11;;;;;;;27.55;18.83;;;;;;;7.68;60.90;99941.78;5035401;28;20025;-49
2023/01/25 03:19:36;;;;;;;28.48;19.48;;;;;;;7.65;60.75;99944.72;5035322;28;20030;-49
2023/01/25 03:22:02;;;;;;;27.40;20.05;;;;;;;7.34;60.42;99941.63;5035323;28;20053;-49
2023/01/25 03:24:28;;;;;;;33.05;21.90;;;;;;;7.11;61.80;99936.84;5035294;28;20087;-48
2023/01/25 03:29:37;;;;;;;28.98;20.25;;;;;;;6.72;62.69;99928.41;5020251;28;20029;-49
2023/01/25 03:32:03;;;;;;;28.13;17.92;;;;;;;6.86;63.30;99929.72;5017274;28;20022;-48
2023/01/25 03:34:29;;;;;;;26.60;18.58;;;;;;;7.23;63.12;99916.56;5035054;28;20029;-48
2023/01/25 03:36:55;;;;;;;25.55;17.67;;;;;;;7.54;62.02;99914.41;5035023;28;20067;-49
2023/01/25 03:39:20;;;;;;;25.52;20.15;;;;;;;7.28;61.19;99914.31;5017416;28;20030;-48
2023/01/25 03:41:46;;;;;;;24.38;18.08;;;;;;;6.87;61.47;99923.53;5034950;28;20018;-48
2023/01/25 03:44:12;;;;;;;28.75;19.60;;;;;;;6.64;62.37;99923.09;5034957;28;20036;-48
2023/01/25 03:46:39;;;;;;;28.75;19.23;;;;;;;6.58;63.33;99917.50;5017099;28;20029;-48
2023/01/25 03:49:05;;;;;;;27.65;20.70;;;;;;;6.54;62.89;99918.75;5017000;28;20035;-48
2023/01/25 03:51:31;;;;;;;25.55;19.15;;;;;;;6.49;63.34;99920.94;5013498;28;20069;-48
2023/01/25 03:53:56;;;;;;;29.90;19.95;;;;;;;6.64;63.75;99917.88;5014944;28;20030;-48
2023/01/25 03:56:22;;;;;;;26.25;19.05;;;;;;;6.93;64.18;99925.56;5014935;28;20101;-49
2023/01/25 03:58:48;;;;;;;25.58;20.45;;;;;;;6.95;62.03;99924.44;5015067;28;20395;-48
2023/01/25 04:01:13;;;;;;;25.95;18.65;;;;;;;6.78;63.93;99914.78;5013546;28;20026;-48
2023/01/25 04:03:39;;;;;;;27.08;19.13;;;;;;;6.98;64.11;99912.88;5014856;28;20025;-48
2023/01/25 04:06:05;;;;;;;28.15;18.30;;;;;;;7.17;62.90;99906.72;5014726;28;20407;-48
2023/01/25 04:08:32;;;;;;;29.08;18.25;;;;;;;7.06;62.77;99899.09;5013407;28;20105;-49
2023/01/25 04:11:06;;;;;;;25.40;18.30;;;;;;;6.85;62.33;99901.97;5014629;28;20033;-48
2023/01/25 04:13:34;;;;;;;24.75;18.83;;;;;;;6.62;63.12;99911.97;5014702;28;20459;-48
2023/01/25 04:15:59;;;;;;;28.90;19.17;;;;;;;6.54;63.64;99910.91;5014638;28;20393;-49
2023/01/25 04:18:25;;;;;;;27.33;18.95;;;;;;;6.47;63.33;99899.41;5013509;28;20025;-48
2023/01/25 04:20:53;;;;;;;25.98;20.48;;;;;;;6.42;63.95;99899.03;5014482;28;20026;-49
2023/01/25 04:23:18;;;;;;;27.10;18.40;;;;;;;6.59;64.83;99900.84;5013175;28;20044;-49
2023/01/25 04:26:02;;;;;;;27.42;19.67;;;;;;;6.97;64.80;99899.00;5014369;28;20377;-48
2023/01/25 04:28:28;;;;;;;30.40;18.85;;;;;;;7.29;63.59;99900.31;5014397;28;20104;-48
2023/01/25 04:30:55;;;;;;;29.75;19.90;;;;;;;7.35;62.80;99910.16;5014318;28;20092;-49
2023/01/25 04:33:20;;;;;;;34.85;19.48;;;;;;;7.36;62.15;99908.38;5014330;28;20018;-49
2023/01/25 04:35:46;;;;;;;27.42;19.58;;;;;;;7.40;62.42;99897.50;5014177;28;20044;-49
2023/01/25 04:38:12;;;;;;;27.58;20.48;;;;;;;7.50;62.05;99900.00;5014174;28;20014;-48
2023/01/25 04:40:38;;;;;;;28.77;19.25;;;;;;;7.35;61.74;99902.31;5012848;28;20029;-49
2023/01/25 04:43:05;;;;;;;31.35;19.75;;;;;;;7.43;62.58;99901.59;5014048;28;20534;-48
2023/01/25 04:45:32;;;;;;;29.08;21.75;;;;;;;7.52;62.56;99905.09;5014273;28;20109;-48
2023/01/25 04:48:00;;;;;;;28.73;20.73;;;;;;;7.62;62.12;99897.16;5012688;28;20029;-49
2023/01/25 04:50:26;;;;;;;38.90;21.67;;;;;;;7.68;61.18;99897.38;5012406;28;20132;-49
2023/01/25 04:52:52;;;;;;;28.30;20.48;;;;;;;7.63;61.25;99898.81;5012616;28;20124;-49
2023/01/25 04:55:18;;;;;;;34.92;19.65;;;;;;;7.59;60.77;99891.28;5012486;28;20105;-49
2023/01/25 04:57:44;;;;;;;25.45;18.95;;;;;;;7.55;60.84;99896.97;5013777;28;20116;-49
2023/01/25 05:00:10;;;;;;;28.45;19.13;;;;;;;7.45;60.37;99888.38;5013614;28;20034;-49
2023/01/25 05:02:36;;;;;;;27.23;20.65;;;;;;;7.27;60.54;99877.94;5013721;28;20414;-49
2023/01/25 05:05:02;;;;;;;27.48;20.50;;;;;;;7.20;60.32;99878.53;5012325;28;20121;-48
2023/01/25 05:07:28;;;;;;;30.85;20.48;;;;;;;7.23;60.83;99874.81;5012320;28;20029;-49
2023/01/25 05:09:53;;;;;;;33.05;20.77;;;;;;;7.40;60.83;99884.44;5013562;28;20531;-48
2023/01/25 05:12:19;;;;;;;31.50;19.48;;;;;;;7.46;61.30;99882.16;5013526;28;20022;-49
2023/01/25 05:14:45;;;;;;;33.45;19.02;;;;;;;7.72;61.74;99887.44;5013487;28;20030;-48
2023/01/25 05:17:10;;;;;;;25.20;18.35;;;;;;;7.97;60.83;99885.84;5013382;28;20022;-48
2023/01/25 05:19:36;;;;;;;26.20;18.92;;;;;;;7.99;59.99;99887.31;5012012;28;20046;-48
2023/01/25 05:22:06;;;;;;;26.67;19.13;;;;;;;7.95;60.08;99888.59;5013308;28;20034;-49
2023/01/25 05:24:33;;;;;;;30.50;19.33;;;;;;;8.07;60.27;99889.16;5013218;28;20030;-48
2023/01/25 05:27:00;;;;;;;30.15;19.20;;;;;;;8.28;59.88;99899.25;5013243;28;20025;-48
2023/01/25 05:29:36;;;;;;;28.67;19.30;;;;;;;8.23;58.69;99890.22;5013281;28;20053;-48
2023/01/25 05:32:17;;;;;;;25.70;18.58;;;;;;;8.06;58.75;99884.91;5013171;28;20034;-48
2023/01/25 05:34:44;;;;;;;26.42;19.13;;;;;;;8.07;58.90;99876.09;5013179;28;20038;-49
2023/01/25 05:37:12;;;;;;;26.60;18.50;;;;;;;8.13;59.33;99878.09;5013318;28;20026;-48
2023/01/25 05:39:38;;;;;;;28.60;19.13;;;;;;;8.29;59.38;99872.13;5012967;28;20186;-48
2023/01/25 05:42:11;;;;;;;32.70;19.90;;;;;;;8.39;59.44;99864.97;5012967;28;20093;-48
2023/01/25 05:44:37;;;;;;;32.05;18.00;;;;;;;8.52;59.23;99861.13;5012919;28;20037;-48
2023/01/25 05:47:02;;;;;;;29.88;18.05;;;;;;;8.57;59.00;99864.91;5011523;28;20403;-49
2023/01/25 05:49:28;;;;;;;35.55;19.83;;;;;;;8.60;58.64;99869.00;5011531;28;20496;-48
2023/01/25 05:51:54;;;;;;;29.58;18.30;;;;;;;8.66;58.53;99867.56;4994910;28;20054;-48
2023/01/25 05:54:19;;;;;;;34.10;18.95;;;;;;;8.56;58.32;99872.91;5012828;28;20029;-49
2023/01/25 05:56:47;;;;;;;31.40;18.95;;;;;;;8.51;58.04;99867.31;5011320;28;20050;-49
2023/01/25 05:59:13;;;;;;;36.38;20.73;;;;;;;8.49;58.12;99858.81;5012658;28;20076;-49
2023/01/25 06:01:38;;;;;;;31.30;20.20;;;;;;;8.46;57.68;99865.19;5012882;28;20034;-48
2023/01/25 06:04:04;;;;;;;25.55;18.73;;;;;;;8.45;57.88;99867.94;5012886;28;20064;-49
2023/01/25 06:06:30;;;;;;;34.47;19.85;;;;;;;8.53;58.10;99865.38;5012555;28;20443;-49
2023/01/25 06:08:56;;;;;;;27.85;18.38;;;;;;;8.61;58.02;99875.88;5012578;28;20030;-49
2023/01/25 06:11:23;;;;;;;28.83;18.73;;;;;;;8.69;58.31;99872.47;5012490;28;20030;-49
2023/01/25 06:13:49;;;;;;;34.88;19.83;;;;;;;8.75;57.88;99875.28;5012478;28;20025;-49
2023/01/25 06:16:16;;;;;;;38.83;19.05;;;;;;;8.67;57.26;99864.78;4994846;28;20034;-48
2023/01/25 06:18:43;;;;;;;30.08;20.08;;;;;;;8.63;57.57;99870.47;5012207;28;20022;-48
2023/01/25 06:21:08;;;;;;;36.10;18.58;;;;;;;8.65;57.38;99868.53;5012348;28;20030;-49
2023/01/25 06:23:34;;;;;;;28.73;20.00;;;;;;;8.62;57.21;99874.91;5011052;28;20033;-48
2023/01/25 06:26:03;;;;;;;27.98;19.65;;;;;;;8.50;57.12;99863.91;5012303;28;20025;-48
2023/01/25 06:28:30;;;;;;;42.85;20.50;;;;;;;8.36;57.18;99877.53;5012364;28;20511;-49
2023/01/25 06:31:06;;;;;;;35.17;20.80;;;;;;;8.12;57.51;99878.22;5010924;28;20026;-49
2023/01/25 06:33:31;;;;;;;33.20;20.02;;;;;;;8.02;57.74;99875.72;5012376;28;20037;-49
2023/01/25 06:36:12;;;;;;;24.42;18.83;;;;;;;8.04;58.01;99879.00;5012242;28;20038;-49
2023/01/25 06:38:38;;;;;;;37.03;20.25;;;;;;;8.05;57.50;99872.81;5010851;28;20427;-49
2023/01/25 06:41:06;;;;;;;30.05;20.60;;;;;;;7.96;58.04;99868.50;5010195;28;20042;-48
2023/01/25 06:43:33;;;;;;;37.50;20.80;;;;;;;7.97;58.98;99863.13;5012128;28;20152;-49
2023/01/25 06:46:00;;;;;;;35.83;21.23;;;;;;;7.92;58.26;99862.75;4994526;28;20515;-48
2023/01/25 06:48:26;;;;;;;34.80;19.20;;;;;;;7.69;59.00;99865.06;5012348;28;20403;-49
2023/01/25 06:50:56;;;;;;;40.70;21.42;;;;;;;7.72;60.00;99856.91;5010604;28;20049;-49
2023/01/25 06:53:24;;;;;;;31.42;21.23;;;;;;;7.79;59.63;99862.34;5011138;28;20033;-48
2023/01/25 06:56:16;;;;;;;32.03;20.30;;;;;;;7.70;59.97;99858.84;5011942;28;20160;-48
2023/01/25 06:58:42;;;;;;;33.30;19.73;;;;;;;7.86;59.97;99868.59;5011845;28;20511;-49
2023/01/25 07:01:13;;;;;;;33.75;19.90;;;;;;;8.03;60.08;99859.06;5010685;28;20033;-48
2023/01/25 07:03:40;;;;;;;34.22;20.30;;;;;;;8.20;60.16;99863.41;5012230;28;20029;-48
2023/01/25 07:06:07;;;;;;;43.15;19.65;;;;;;;8.33;59.65;99859.53;5010550;28;20380;-48
2023/01/25 07:08:34;;;;;;;31.15;21.08;;;;;;;8.38;59.41;99852.84;5010589;28;20065;-49
2023/01/25 07:11:02;;;;;;;35.08;19.92;;;;;;;8.44;59.11;99858.47;5010642;28;20045;-49
2023/01/25 07:13:29;;;;;;;29.02;18.88;;;;;;;8.50;58.84;99856.03;5011835;28;20033;-48
2023/01/25 07:15:57;;;;;;;33.30;20.42;;;;;;;8.46;58.76;99861.75;5010442;28;20041;-48
2023/01/25 07:18:23;;;;;;;46.30;22.23;;;;;;;8.46;58.76;99857.34;5011708;28;20037;-48
2023/01/25 07:20:49;;;;;;;32.95;20.17;;;;;;;8.31;58.42;99856.25;5011954;28;20022;-48
2023/01/25 07:23:15;;;;;;;40.63;21.42;;;;;;;8.19;58.57;99856.53;5011800;28;20519;-48
2023/01/25 07:25:46;;;;;;;38.05;20.13;;;;;;;8.04;58.38;99863.31;5011666;28;20057;-48
2023/01/25 07:28:12;;;;;;;43.95;21.60;;;;;;;7.91;58.18;99868.97;5010658;28;20513;-48
2023/01/25 07:30:38;;;;;;;31.77;20.38;;;;;;;7.80;58.71;99859.56;5011657;28;20105;-48
2023/01/25 07:33:03;;;;;;;43.95;21.73;;;;;;;7.68;59.52;99855.56;5011647;28;20113;-48
2023/01/25 07:35:31;;;;;;;27.63;21.35;;;;;;;7.59;58.64;99862.53;5010343;28;20041;-49
2023/01/25 07:37:56;;;;;;;33.22;20.88;;;;;;;7.34;58.65;99863.28;5011805;28;20372;-48
2023/01/25 07:40:24;;;;;;;38.03;21.23;;;;;;;7.29;58.85;99855.91;5011509;28;20084;-48
2023/01/25 07:42:52;;;;;;;37.40;20.40;;;;;;;7.17;59.46;99859.72;5011786;28;20454;-48
2023/01/25 07:45:19;;;;;;;32.40;20.27;;;;;;;7.07;59.74;99856.38;5011551;28;20069;-48
2023/01/25 07:47:45;;;;;;;31.20;21.60;;;;;;;7.20;60.67;99848.97;5010163;28;20181;-48
2023/01/25 07:50:11;;;;;;;40.30;20.85;;;;;;;7.36;60.63;99851.75;5012900;28;20037;-49
2023/01/25 07:52:37;;;;;;;32.00;21.30;;;;;;;7.56;60.03;99857.59;5016345;28;20518;-48
2023/01/25 07:55:03;;;;;;;31.92;21.65;;;;;;;7.57;59.81;99859.25;5034708;28;20018;-49
2023/01/25 07:57:28;;;;;;;37.40;20.33;;;;;;;7.51;59.61;99853.81;5034708;28;20057;-49
2023/01/25 07:59:54;;;;;;;40.78;21.77;;;;;;;7.40;59.67;99853.09;5000596;28;20068;-48
2023/01/25 08:02:20;;;;;;;40.00;20.45;;;;;;;7.35;59.54;99844.88;5034625;28;20487;-48
2023/01/25 08:04:46;;;;;;;28.48;19.30;;;;;;;7.18;59.96;99848.31;5034591;28;20022;-49
2023/01/25 08:07:12;;;;;;;32.03;20.45;;;;;;;7.25;60.38;99848.56;5034539;28;20086;-48
2023/01/25 08:09:39;;;;;;;37.35;19.35;;;;;;;7.59;60.72;99840.81;5034656;28;20029;-49
2023/01/25 08:12:06;;;;;;;38.78;19.60;;;;;;;7.91;60.49;99847.25;5016604;28;20026;-48
2023/01/25 08:14:32;;;;;;;35.50;18.65;;;;;;;8.20;59.81;99841.66;5016611;28;20022;-48
2023/01/25 08:16:58;;;;;;;32.00;20.02;;;;;;;8.42;58.89;99840.31;5034363;28;20040;-48
2023/01/25 08:19:24;;;;;;;34.97;20.83;;;;;;;8.36;58.12;99833.88;5034239;28;20024;-48
2023/01/25 08:21:50;;;;;;;35.03;19.67;;;;;;;8.37;58.28;99837.31;5034295;28;20406;-49
2023/01/25 08:24:16;;;;;;;39.72;20.25;;;;;;;8.52;58.52;99834.97;5034242;28;20033;-48
2023/01/25 08:26:42;;;;;;;38.40;21.65;;;;;;;8.59;57.33;99828.09;5034144;28;20071;-48
2023/01/25 08:29:09;;;;;;;40.58;21.45;;;;;;;8.40;57.19;99834.41;5034394;28;20022;-49
2023/01/25 08:31:36;;;;;;;34.90;20.10;;;;;;;8.27;57.37;99836.63;5016530;28;20068;-48
2023/01/25 08:34:02;;;;;;;32.60;21.30;;;;;;;8.23;57.85;99830.91;5016239;28;20025;-48
2023/01/25 08:36:28;;;;;;;33.13;19.58;;;;;;;8.28;57.99;99833.84;5034014;28;20028;-49
2023/01/25 08:38:56;;;;;;;36.03;19.33;;;;;;;8.49;58.27;99824.81;5033934;28;20025;-48
2023/01/25 08:41:22;;;;;;;51.22;19.00;;;;;;;8.66;57.38;99830.94;5016430;28;20021;-48
2023/01/25 08:43:48;;;;;;;34.65;21.65;;;;;;;8.66;56.54;99829.13;5034079;28;20437;-49
2023/01/25 08:46:15;;;;;;;33.25;20.95;;;;;;;8.39;56.25;99828.34;5016037;28;20030;-48
2023/01/25 08:48:41;;;;;;;37.38;18.52;;;;;;;8.20;57.26;99829.41;5033769;28;20108;-48
2023/01/25 08:51:08;;;;;;;39.03;19.75;;;;;;;8.23;57.75;99835.28;5012417;28;20130;-49
2023/01/25 08:53:34;;;;;;;40.63;20.70;;;;;;;8.20;57.07;99837.25;5013882;28;20037;-48
2023/01/25 08:56:09;;;;;;;34.45;19.40;;;;;;;8.08;57.57;99835.06;5013832;28;20022;-48
2023/01/25 08:58:37;;;;;;;30.30;19.38;;;;;;;7.98;57.38;99835.19;5012476;28;20061;-48
2023/01/25 09:01:05;;;;;;;30.92;18.58;;;;;;;8.06;57.89;99830.00;5013766;28;20400;-49
2023/01/25 09:03:34;;;;;;;31.70;19.63;;;;;;;8.23;57.84;99828.28;5013124;28;20028;-48
2023/01/25 09:06:00;;;;;;;28.58;19.35;;;;;;;8.40;57.34;99829.16;5013699;28;20463;-49
2023/01/25 09:08:25;;;;;;;26.73;18.08;;;;;;;8.53;57.21;99829.59;5012365;28;20049;-49
2023/01/25 09:10:51;;;;;;;34.67;18.60;;;;;;;8.50;56.68;99829.06;5012507;28;20033;-48
2023/01/25 09:13:17;;;;;;;39.63;21.15;;;;;;;8.38;56.57;99826.69;4996003;28;20053;-48
2023/01/25 09:15:43;;;;;;;39.35;19.55;;;;;;;8.33;56.76;99825.53;5013379;28;20072;-49
2023/01/25 09:18:09;;;;;;;36.47;20.88;;;;;;;8.18;56.43;99818.28;5013434;28;20072;-48
2023/01/25 09:20:37;;;;;;;31.80;19.75;;;;;;;8.05;56.85;99822.28;5013361;28;20034;-49
2023/01/25 09:23:03;;;;;;;34.55;19.17;;;;;;;8.03;57.16;99816.41;5012381;28;20026;-48
2023/01/25 09:25:28;;;;;;;35.83;19.40;;;;;;;8.16;57.64;99827.25;5013268;28;20054;-48
2023/01/25 09:27:54;;;;;;;35.40;20.60;;;;;;;8.24;57.22;99821.25;5013236;28;20041;-49
2023/01/25 09:30:20;;;;;;;44.38;20.27;;;;;;;8.33;57.30;99821.13;5011934;28;20022;-49
2023/01/25 09:32:49;;;;;;;28.05;20.38;;;;;;;8.52;57.28;99829.72;5013041;28;20091;-48
2023/01/25 09:35:14;;;;;;;30.23;19.15;;;;;;;8.67;57.05;99822.91;5013089;28;20393;-49
2023/01/25 09:37:40;;;;;;;38.03;18.40;;;;;;;8.89;57.15;99825.88;5011918;28;20080;-49
2023/01/25 09:40:25;;;;;;;47.03;21.08;;;;;;;9.04;56.68;99834.75;5012972;28;20475;-49
2023/01/25 09:42:56;;;;;;;32.38;18.52;;;;;;;9.10;55.86;99830.69;5013081;28;20025;-48
2023/01/25 09:45:33;;;;;;;29.85;18.40;;;;;;;9.12;55.76;99828.72;5012905;28;20022;-49
2023/01/25 09:48:12;;;;;;;33.22;19.02;;;;;;;9.08;55.19;99824.78;5013192;28;20044;-48
2023/01/25 09:50:56;;;;;;;28.35;17.17;;;;;;;9.05;55.34;99828.53;5018126;28;20071;-49
2023/01/25 09:53:28;;;;;;;25.83;18.05;;;;;;;9.03;54.34;99832.28;5014759;28;20372;-49
2023/01/25 09:56:00;;;;;;;34.33;18.35;;;;;;;8.87;54.62;99833.09;5014836;28;20044;-48
2023/01/25 09:58:37;;;;;;;30.00;18.35;;;;;;;8.75;54.94;99828.16;5014593;28;20057;-48
2023/01/25 10:01:23;;;;;;;34.35;19.88;;;;;;;8.68;55.00;99836.81;5032479;28;20035;-48
2023/01/25 10:03:53;;;;;;;40.92;21.42;;;;;;;8.39;55.40;99838.81;5032361;28;20036;-49
2023/01/25 10:06:22;;;;;;;39.38;20.38;;;;;;;8.24;56.29;99836.94;5014600;28;20030;-48
2023/01/25 10:09:18;;;;;;;27.63;17.88;;;;;;;8.38;56.33;99839.78;5015007;28;20030;-49
2023/01/25 10:11:44;;;;;;;35.30;17.70;;;;;;;8.69;55.99;99833.22;5031775;28;20407;-49
2023/01/25 10:14:15;;;;;;;31.05;18.73;;;;;;;8.83;54.89;99824.72;5014094;28;20030;-49
2023/01/25 10:16:48;;;;;;;29.30;16.77;;;;;;;8.86;54.76;99821.00;5014023;28;20034;-48
2023/01/25 10:19:35;;;;;;;29.15;19.40;;;;;;;8.83;54.39;99824.72;5032089;28;20024;-49
2023/01/25 10:22:15;;;;;;;28.02;18.35;;;;;;;8.66;54.71;99825.69;5014361;28;20136;-48
2023/01/25 10:25:03;;;;;;;24.13;17.60;;;;;;;8.67;54.08;99822.91;5032323;28;20392;-49
2023/01/25 10:27:37;;;;;;;25.08;17.23;;;;;;;8.63;54.13;99815.53;5032020;28;20083;-48
2023/01/25 10:30:30;;;;;;;31.70;18.75;;;;;;;8.60;53.98;99811.44;5031982;28;20484;-49
2023/01/25 10:33:00;;;;;;;146.95;132.48;;;;;;;8.53;54.13;99808.66;5014363;28;20036;-49
2023/01/25 10:35:35;;;;;;;45.60;32.10;;;;;;;8.56;54.56;99812.75;5031794;28;20079;-48
2023/01/25 10:38:27;;;;;;;23.55;18.60;;;;;;;8.74;54.20;99800.34;5031893;28;20112;-48
2023/01/25 10:41:00;;;;;;;30.77;21.30;;;;;;;8.89;53.64;99802.31;5031893;28;20077;-49
2023/01/25 10:43:27;;;;;;;22.98;18.33;;;;;;;8.97;53.06;99799.72;5031839;28;20029;-49
2023/01/25 10:45:52;;;;;;;29.45;19.40;;;;;;;8.88;53.23;99796.28;5031783;28;20025;-49
2023/01/25 10:48:35;;;;;;;26.38;18.45;;;;;;;8.95;53.15;99785.97;5014025;28;20033;-49
2023/01/25 10:51:01;;;;;;;26.55;17.65;;;;;;;8.87;52.68;99794.63;4997733;28;20053;-49
2023/01/25 10:53:34;;;;;;;28.77;17.25;;;;;;;8.92;52.93;99794.97;5031720;28;20445;-48
2023/01/25 10:56:15;;;;;;;24.02;17.83;;;;;;;9.02;52.22;99784.34;5031609;28;20033;-49
2023/01/25 10:58:48;;;;;;;26.83;18.48;;;;;;;8.90;51.76;99794.31;5031603;28;20061;-49
2023/01/25 11:01:31;;;;;;;22.42;16.42;;;;;;;8.86;52.09;99790.38;5031815;28;20034;-49
2023/01/25 11:03:58;;;;;;;23.15;17.58;;;;;;;8.96;51.89;99788.44;5014175;28;20029;-48
2023/01/25 11:06:32;;;;;;;26.33;16.58;;;;;;;8.93;51.78;99780.06;5031572;28;20491;-48
2023/01/25 11:08:58;;;;;;;20.87;17.33;;;;;;;9.06;51.86;99772.56;5031609;28;20025;-49
2023/01/25 11:11:35;;;;;;;25.08;16.73;;;;;;;9.05;51.56;99780.59;5013814;28;20398;-49
2023/01/25 11:14:14;;;;;;;25.23;16.10;;;;;;;9.14;51.45;99769.94;5031662;28;20045;-48
2023/01/25 11:16:45;;;;;;;27.42;17.25;;;;;;;9.22;51.06;99769.13;5031771;28;20025;-48
2023/01/25 11:19:40;;;;;;;23.20;16.65;;;;;;;9.15;50.73;99776.00;5031468;28;20026;-49
2023/01/25 11:22:28;;;;;;;23.13;16.75;;;;;;;9.10;50.59;99775.69;4996957;28;20034;-49
2023/01/25 11:24:53;;;;;;;25.90;16.85;;;;;;;9.01;50.97;99769.59;5031507;28;20071;-48
2023/01/25 11:27:22;;;;;;;23.17;15.57;;;;;;;8.91;50.87;99753.25;5034032;28;20025;-49
2023/01/25 11:30:15;;;;;;;25.02;15.80;;;;;;;8.86;50.68;99756.34;5017470;28;20029;-48
2023/01/25 11:32:40;;;;;;;23.48;15.90;;;;;;;8.78;50.81;99749.31;5035254;28;20365;-48
2023/01/25 11:35:24;;;;;;;23.23;15.38;;;;;;;8.79;50.79;99748.34;5017391;28;20036;-48
2023/01/25 11:38:12;;;;;;;20.30;15.60;;;;;;;8.83;50.64;99740.97;5035185;28;20112;-49